Old Mystic, CT (06372)

6:41 PM EDT on July 25, 2016 (GMT -0400)
Mystic | | Change Station
Active Advisory: Severe Thunderstorm Watch Active Notice: Record Report

Elev 154 ft 41.36 °N, 71.97 °W | Updated 14 seconds ago

Overcast
Overcast
77.0 °F
Feels Like 79 °F
N
0.2
Wind Variable Wind from West
Gusts 2.5 mph

Today
High -- | Low -- °F
--% Chance of Precip.
Yesterday
High -- | Low -- °F
Precip. -- in
Pressure 29.81 in
Visibility 8.0 miles
Clouds Clear
Heat Index 79 °F
Dew Point 67 °F
Humidity 70%
Rainfall 0.00 in
Snow Depth Not available.
5:36 AM 8:11 PM
Waning Gibbous, 61% visible
METAR KGON 252156Z COR 21008KT 8SM -RA CLR 24/22 A2980 RMK AO2 RAB41 SLP092 P0000 T02440222 $
Pressure 29.81 in
Visibility 8.0 miles
Clouds Clear
Heat Index 79 °F
Dew Point 67 °F
Humidity 70%
Rainfall 0.00 in
Snow Depth Not available.
5:36 AM 8:11 PM
Waning Gibbous, 61% visible
METAR KGON 252156Z COR 21008KT 8SM -RA CLR 24/22 A2980 RMK AO2 RAB41 SLP092 P0000 T02440222 $
Record highs are possible for parts of the Northeast Monday and Tuesday, as parts of the central U.S. take a little breather from the worst of summer's dog day heat.

Expansive high pressure in the upper atmosphere will focus on parts of the East and West this week, sending heat indices well into the triple digits from the Mid-Atlantic states into the South.

10-Day Weather Forecast

Almanac

Astronomy

Jul. 25, 2016 Rise Set
Actual Time
Civil Twilight
Nautical Twilight
Astronomical Twilight
Moon
Length of Visible Light
Length of Day
Tomorrow will be .
, % of the Moon is Illuminated

Today's Extremes

State Highs State Lows

Community

WunderPhotos

Upload Photos

1,927,436 photos uploaded!

WunderBlog® & News

Nearby

Air Quality

  Air Quality AQ Index Pollutant
Not available.

Snow Depth

Station Depth Elevation

Earthquake Activity

City Distance Mag. Time & Date
Minimum magnitude displayed is 2.5.

Coastal Water Temperatures

Place Temperature

Stations

Nearby Weather Stations

Station Location Temp. Windchill Dew Point Humidity Wind Precip. Elev Updated Type
                   

Watches & Warnings

Severe Thunderstorm Watch
Issued: 5:52 PM EDT Jul. 25, 2016 – National Weather Service

Severe Thunderstorm Watch 415 remains in effect until 800 PM EDT
for the following locations


CT
. Connecticut counties included are

Fairfield Litchfield Middlesex
New Haven New London